createdAt,value
2018-01-20T00:03:46.802Z,9.37
2018-01-20T00:06:17.195Z,10.77
2018-01-20T00:08:47.301Z,9.87
2018-01-20T00:12:28.823Z,9.53
2018-01-20T00:14:58.924Z,10.47
2018-01-20T00:17:29.774Z,10.97
2018-01-20T00:20:00.045Z,11.20
2018-01-20T00:22:31.197Z,10.13
2018-01-20T00:25:03.506Z,10.30
2018-01-20T00:27:37.798Z,9.90
2018-01-20T00:30:08.136Z,9.47
2018-01-20T00:32:38.505Z,9.73
2018-01-20T00:35:08.892Z,9.80
2018-01-20T00:37:38.877Z,9.90
2018-01-20T00:40:09.608Z,10.40
2018-01-20T00:42:40.016Z,10.10
2018-01-20T00:45:10.225Z,11.60
2018-01-20T00:47:40.797Z,9.60
2018-01-20T00:50:11.054Z,10.87
2018-01-20T00:52:42.052Z,10.07
2018-01-20T00:55:12.249Z,10.23
2018-01-20T00:57:42.421Z,11.57
2018-01-20T01:00:12.573Z,9.97
2018-01-20T01:02:43.680Z,9.63
2018-01-20T01:05:13.933Z,10.50
2018-01-20T01:07:44.062Z,10.93
2018-01-20T01:10:14.431Z,11.27
2018-01-20T01:12:44.772Z,11.57
2018-01-20T01:15:15.053Z,10.97
2018-01-20T01:17:45.687Z,10.17
2018-01-20T01:20:16.017Z,11.10
2018-01-20T01:22:46.760Z,10.23
2018-01-20T01:25:16.826Z,10.40
2018-01-20T01:27:47.120Z,10.30
2018-01-20T01:30:18.120Z,8.60
2018-01-20T01:32:48.412Z,11.10
2018-01-20T01:35:18.728Z,11.43
2018-01-20T01:37:49.710Z,11.17
2018-01-20T01:40:20.074Z,10.73
2018-01-20T01:42:50.308Z,10.83
2018-01-20T01:45:20.899Z,11.57
2018-01-20T01:47:51.222Z,11.90
2018-01-20T01:50:21.228Z,11.33
2018-01-20T01:52:52.501Z,10.77
2018-01-20T01:55:22.740Z,11.37
2018-01-20T01:57:53.816Z,10.23
2018-01-20T02:00:23.788Z,12.00
2018-01-20T02:02:55.263Z,12.10
2018-01-20T02:05:25.368Z,10.97
2018-01-20T02:07:56.259Z,11.30
2018-01-20T02:10:27.180Z,13.97
2018-01-20T02:12:58.899Z,12.27
2018-01-20T02:15:29.235Z,12.20
2018-01-20T02:17:59.252Z,13.07
2018-01-20T02:20:29.336Z,12.90
2018-01-20T02:22:59.587Z,11.63
2018-01-20T02:25:30.599Z,12.77
2018-01-20T02:28:01.107Z,13.10
2018-01-20T02:30:31.709Z,12.50
2018-01-20T02:33:02.068Z,12.27
2018-01-20T02:35:32.377Z,12.10
2018-01-20T02:38:03.429Z,13.30
2018-01-20T02:40:33.677Z,11.30
2018-01-20T02:43:03.692Z,11.77
2018-01-20T02:45:33.788Z,12.63
2018-01-20T02:48:04.080Z,10.80
2018-01-20T02:50:34.961Z,11.67
2018-01-20T02:53:05.272Z,11.83
2018-01-20T02:55:35.581Z,12.23
2018-01-20T02:58:06.695Z,11.10
2018-01-20T03:00:36.717Z,11.47
2018-01-20T03:03:08.736Z,11.67
2018-01-20T03:05:39.557Z,11.10
2018-01-20T03:08:10.756Z,10.27
2018-01-20T03:10:41.098Z,10.50
2018-01-20T03:13:12.100Z,9.40
2018-01-20T03:15:42.780Z,9.77
2018-01-20T03:18:13.770Z,10.47
2018-01-20T03:20:44.183Z,10.23
2018-01-20T03:23:15.045Z,9.70
2018-01-20T03:25:45.514Z,9.87
2018-01-20T03:28:15.480Z,9.20
2018-01-20T03:30:45.684Z,8.20
2018-01-20T03:33:16.229Z,9.67
2018-01-20T03:35:46.593Z,8.17
2018-01-20T03:38:18.162Z,8.20
2018-01-20T03:40:48.533Z,7.80
2018-01-20T03:43:18.699Z,6.13
2018-01-20T03:45:49.740Z,6.23
2018-01-20T03:48:20.681Z,6.50
2018-01-20T03:50:51.011Z,5.87
2018-01-20T03:53:21.786Z,5.60
2018-01-20T03:55:51.862Z,5.47
2018-01-20T03:58:23.078Z,5.03
2018-01-20T04:00:53.828Z,5.37
2018-01-20T04:03:25.513Z,5.67
2018-01-20T04:05:55.762Z,6.23
2018-01-20T04:08:26.741Z,5.70
2018-01-20T04:10:57.475Z,6.60
2018-01-20T04:13:28.174Z,7.17
2018-01-20T04:15:58.719Z,7.80
2018-01-20T04:18:29.270Z,7.60
2018-01-20T04:20:59.573Z,7.43
2018-01-20T04:23:29.757Z,8.30
2018-01-20T04:26:00.179Z,8.60
2018-01-20T04:28:30.309Z,8.30
2018-01-20T04:31:00.779Z,8.90
2018-01-20T04:33:32.000Z,8.00
2018-01-20T04:36:02.373Z,8.70
2018-01-20T04:38:32.664Z,8.97
2018-01-20T04:41:02.925Z,8.37
2018-01-20T04:43:33.040Z,8.70
2018-01-20T04:46:02.996Z,8.57
2018-01-20T04:48:33.387Z,8.77
2018-01-20T04:51:03.842Z,8.90
2018-01-20T04:53:35.004Z,8.93
2018-01-20T04:56:05.446Z,10.07
2018-01-20T04:58:35.747Z,9.60
2018-01-20T05:01:06.048Z,8.67
2018-01-20T05:03:36.468Z,10.20
2018-01-20T05:06:06.580Z,10.60
2018-01-20T05:08:37.725Z,8.23
2018-01-20T05:11:07.728Z,10.00
2018-01-20T05:13:38.174Z,8.70
2018-01-20T05:16:08.145Z,9.13
2018-01-20T05:18:39.186Z,8.30
2018-01-20T05:21:09.973Z,9.57
2018-01-20T05:23:40.357Z,9.87
2018-01-20T05:26:10.453Z,10.27
2018-01-20T05:28:41.313Z,9.73
2018-01-20T05:31:11.320Z,9.13
2018-01-20T05:33:41.809Z,9.93
2018-01-20T05:36:12.990Z,9.00
2018-01-20T05:38:43.292Z,9.33
2018-01-20T05:41:14.279Z,8.20
2018-01-20T05:43:44.504Z,8.03
2018-01-20T05:46:14.681Z,9.80
2018-01-20T05:48:45.814Z,9.40
2018-01-20T05:51:17.185Z,9.50
2018-01-20T05:53:47.666Z,7.80
2018-01-20T05:56:17.831Z,9.00
2018-01-20T05:58:47.893Z,8.77
2018-01-20T06:01:18.441Z,8.90
2018-01-20T06:03:48.603Z,8.33
2018-01-20T06:06:19.708Z,11.10
2018-01-20T06:08:50.011Z,10.50
2018-01-20T06:11:20.415Z,11.30
2018-01-20T06:13:50.685Z,10.70
2018-01-20T06:16:20.737Z,9.87
2018-01-20T06:18:51.284Z,9.67
2018-01-20T06:21:22.407Z,10.23
2018-01-20T06:23:52.654Z,11.87
2018-01-20T06:26:22.862Z,10.43
2018-01-20T06:29:01.200Z,10.03
2018-01-20T06:31:37.943Z,11.30
2018-01-20T06:34:12.164Z,10.33
2018-01-20T06:36:47.864Z,10.47
2018-01-20T06:39:20.178Z,9.77
2018-01-20T06:41:51.085Z,10.70
2018-01-20T06:44:21.420Z,10.83
2018-01-20T06:46:51.539Z,9.47
2018-01-20T06:49:23.060Z,9.30
2018-01-20T06:51:53.430Z,8.80
2018-01-20T06:54:23.464Z,9.27
2018-01-20T06:56:54.388Z,9.93
2018-01-20T06:59:24.399Z,8.60
2018-01-20T07:01:55.314Z,9.90
2018-01-20T07:04:26.560Z,9.20
2018-01-20T07:06:57.333Z,8.87
2018-01-20T07:09:27.504Z,8.17
2018-01-20T07:11:57.483Z,9.47
2018-01-20T07:14:27.570Z,8.70
2018-01-20T07:16:58.121Z,8.10
2018-01-20T07:19:28.516Z,9.23
2018-01-20T07:21:58.503Z,8.30
2018-01-20T07:24:28.527Z,8.50
2018-01-20T07:26:58.764Z,9.10
2018-01-20T07:30:32.101Z,9.47
2018-01-20T07:33:02.477Z,9.50
2018-01-20T07:35:33.932Z,9.27
2018-01-20T07:38:04.612Z,8.47
2018-01-20T07:40:34.611Z,9.10
2018-01-20T07:43:04.608Z,9.17
2018-01-20T07:45:34.975Z,9.60
2018-01-20T07:48:05.002Z,9.30
2018-01-20T07:50:35.717Z,8.90
2018-01-20T07:53:05.875Z,8.73
2018-01-20T07:55:37.167Z,9.67
2018-01-20T07:58:07.315Z,9.17
2018-01-20T08:00:37.894Z,9.77
2018-01-20T08:03:09.174Z,8.80
2018-01-20T08:05:39.971Z,8.47
2018-01-20T08:08:10.289Z,9.20
2018-01-20T08:10:41.084Z,8.50
2018-01-20T08:13:11.359Z,9.50
2018-01-20T08:15:42.464Z,7.87
2018-01-20T08:18:12.560Z,8.40
2018-01-20T08:20:43.165Z,9.13
2018-01-20T08:23:13.190Z,8.60
2018-01-20T08:25:44.870Z,8.70
2018-01-20T08:28:14.908Z,8.07
2018-01-20T08:30:46.092Z,7.77
2018-01-20T08:33:16.245Z,8.03
2018-01-20T08:35:46.468Z,7.37
2018-01-20T08:38:16.848Z,6.77
2018-01-20T08:40:47.523Z,8.20
2018-01-20T08:43:17.612Z,8.40
2018-01-20T08:45:47.905Z,8.20
2018-01-20T08:48:23.784Z,8.43
2018-01-20T08:50:53.848Z,8.97
2018-01-20T08:53:24.988Z,8.03
2018-01-20T08:55:55.528Z,8.60
2018-01-20T08:58:26.343Z,6.70
2018-01-20T09:00:56.604Z,7.30
2018-01-20T09:03:26.705Z,7.97
2018-01-20T09:05:57.602Z,8.30
2018-01-20T09:08:28.201Z,7.90
2018-01-20T09:10:59.093Z,7.57
2018-01-20T09:16:08.455Z,8.57
2018-01-20T09:18:38.633Z,7.57
2018-01-20T09:21:09.173Z,7.67
2018-01-20T09:23:39.577Z,8.50
2018-01-20T09:26:10.460Z,8.30
2018-01-20T09:28:40.686Z,7.80
2018-01-20T09:31:11.274Z,8.53
2018-01-20T09:33:41.948Z,8.07
2018-01-20T09:36:12.055Z,8.20
2018-01-20T09:38:42.067Z,7.90
2018-01-20T09:41:12.533Z,8.23
2018-01-20T09:43:43.455Z,7.70
2018-01-20T09:46:14.934Z,8.93
2018-01-20T09:48:45.042Z,7.30
2018-01-20T09:51:16.039Z,7.43
2018-01-20T09:53:46.434Z,6.80
2018-01-20T09:56:16.567Z,6.97
2018-01-20T09:58:47.041Z,6.80
2018-01-20T10:01:18.556Z,7.70
2018-01-20T10:03:48.684Z,7.70
2018-01-20T10:06:18.915Z,7.80
2018-01-20T10:08:49.455Z,7.10
2018-01-20T10:11:19.630Z,7.90
2018-01-20T10:13:50.851Z,7.73
2018-01-20T10:16:21.147Z,7.30
2018-01-20T10:18:51.890Z,7.53
2018-01-20T10:21:22.789Z,8.20
2018-01-20T10:23:53.824Z,7.47
2018-01-20T10:26:24.608Z,7.70
2018-01-20T10:28:55.474Z,8.40
2018-01-20T10:31:25.924Z,7.77
2018-01-20T10:33:59.062Z,7.80
2018-01-20T10:36:29.183Z,9.30
2018-01-20T10:39:00.289Z,9.63
2018-01-20T10:41:30.491Z,9.07
2018-01-20T10:44:00.653Z,9.10
2018-01-20T10:46:31.033Z,8.60
2018-01-20T10:49:01.558Z,9.40
2018-01-20T10:51:31.689Z,9.60
2018-01-20T10:54:01.960Z,9.80
2018-01-20T10:56:32.371Z,8.57
2018-01-20T10:59:07.472Z,8.83
2018-01-20T11:01:39.573Z,8.00
2018-01-20T11:04:11.637Z,10.10
2018-01-20T11:06:42.687Z,9.67
2018-01-20T11:09:13.695Z,8.57
2018-01-20T11:11:45.171Z,8.07
2018-01-20T11:14:17.620Z,8.27
2018-01-20T11:16:49.602Z,8.07
2018-01-20T11:19:20.380Z,7.27
2018-01-20T11:28:36.258Z,7.27
2018-01-20T11:31:08.948Z,6.80
2018-01-20T11:33:40.729Z,7.33
2018-01-20T11:36:12.624Z,7.50
2018-01-20T11:38:43.096Z,7.30
2018-01-20T11:41:15.504Z,6.60
2018-01-20T11:43:47.640Z,6.90
2018-01-20T11:46:18.212Z,6.80
2018-01-20T11:48:48.909Z,7.37
2018-01-20T11:51:20.834Z,7.40
2018-01-20T11:53:53.340Z,7.10
2018-01-20T11:56:24.830Z,8.23
2018-01-20T11:58:55.811Z,7.87
2018-01-20T12:01:26.878Z,6.77
2018-01-20T12:03:57.379Z,6.77
2018-01-20T12:06:28.163Z,6.70
2018-01-20T12:08:58.464Z,6.47
2018-01-20T12:11:31.289Z,6.67
2018-01-20T12:14:03.128Z,7.30
2018-01-20T12:16:33.327Z,6.10
2018-01-20T12:19:04.966Z,6.23
2018-01-20T12:21:36.749Z,6.83
2018-01-20T12:24:10.348Z,6.60
2018-01-20T12:26:40.616Z,5.70
2018-01-20T12:29:11.394Z,6.33
2018-01-20T12:31:43.975Z,6.90
2018-01-20T12:34:14.225Z,5.03
2018-01-20T12:36:44.479Z,5.00
2018-01-20T12:39:15.205Z,6.00
2018-01-20T12:41:45.488Z,5.67
2018-01-20T12:44:17.063Z,5.27
2018-01-20T12:46:47.771Z,6.10
2018-01-20T12:49:18.139Z,5.33
2018-01-20T12:51:49.289Z,5.50
2018-01-20T12:54:20.770Z,5.20
2018-01-20T12:56:50.969Z,5.50
2018-01-20T12:59:22.066Z,5.40
2018-01-20T13:01:53.898Z,5.00
2018-01-20T13:04:25.219Z,5.10
2018-01-20T13:06:55.688Z,5.17
2018-01-20T13:09:26.179Z,5.10
2018-01-20T13:11:57.400Z,5.60
2018-01-20T13:14:28.331Z,5.57
2018-01-20T13:16:59.239Z,5.60
2018-01-20T13:19:29.814Z,6.00
2018-01-20T13:22:00.876Z,5.80
2018-01-20T13:24:31.002Z,4.80
2018-01-20T13:27:01.564Z,6.27
2018-01-20T13:29:32.146Z,5.93
2018-01-20T13:32:03.541Z,5.43
2018-01-20T13:34:34.276Z,5.80
2018-01-20T13:37:04.773Z,6.17
2018-01-20T13:39:35.017Z,5.93
2018-01-20T13:42:05.683Z,5.27
2018-01-20T13:44:35.930Z,5.13
2018-01-20T13:47:06.946Z,5.83
2018-01-20T13:49:37.551Z,5.20
2018-01-20T13:52:08.003Z,5.20
2018-01-20T13:54:38.329Z,5.40
2018-01-20T13:57:08.953Z,5.60
2018-01-20T13:59:39.187Z,5.97
2018-01-20T14:02:09.472Z,6.27
2018-01-20T14:04:39.721Z,5.00
2018-01-20T14:07:10.063Z,6.30
2018-01-20T14:09:41.090Z,6.30
2018-01-20T14:12:13.454Z,5.97
2018-01-20T14:14:44.504Z,6.33
2018-01-20T14:17:14.732Z,6.03
2018-01-20T14:19:45.460Z,6.50
2018-01-20T14:22:15.518Z,6.47
2018-01-20T14:24:47.730Z,6.17
2018-01-20T14:27:19.189Z,6.13
2018-01-20T14:29:50.324Z,5.90
2018-01-20T14:32:21.566Z,6.70
2018-01-20T14:34:53.002Z,5.90
2018-01-20T14:37:25.842Z,6.27
2018-01-20T14:39:56.342Z,6.60
2018-01-20T14:42:28.286Z,6.17
2018-01-20T14:44:58.894Z,6.20
2018-01-20T14:47:29.023Z,6.13
2018-01-20T14:49:59.531Z,6.77
2018-01-20T14:52:30.597Z,6.00
2018-01-20T14:55:01.188Z,5.73
2018-01-20T14:57:32.676Z,5.30
2018-01-20T15:00:03.300Z,6.90
2018-01-20T15:02:34.467Z,4.60
2018-01-20T15:05:07.180Z,5.27
2018-01-20T15:07:38.878Z,5.37
2018-01-20T15:10:09.029Z,5.80
2018-01-20T15:12:43.911Z,5.87
2018-01-20T15:15:15.402Z,5.50
2018-01-20T15:17:46.305Z,6.40
2018-01-20T15:20:18.151Z,9.23
2018-01-20T15:22:49.098Z,5.10
2018-01-20T15:25:19.602Z,4.20
2018-01-20T15:27:50.799Z,5.80
2018-01-20T15:30:21.076Z,5.93
2018-01-20T15:32:51.354Z,7.30
2018-01-20T15:35:22.009Z,4.53
2018-01-20T15:37:53.883Z,4.37
2018-01-20T15:40:25.343Z,4.93
2018-01-20T15:42:56.130Z,4.37
2018-01-20T15:45:26.744Z,4.30
2018-01-20T15:47:59.094Z,4.50
2018-01-20T15:50:29.785Z,5.20
2018-01-20T15:53:00.780Z,3.83
2018-01-20T15:55:31.174Z,4.57
2018-01-20T15:58:01.761Z,9.87
2018-01-20T16:00:32.354Z,15.63
2018-01-20T16:03:02.710Z,11.47
2018-01-20T16:05:34.003Z,6.80
2018-01-20T16:08:04.428Z,4.40
2018-01-20T16:10:34.729Z,4.40
2018-01-20T16:13:05.974Z,4.73
2018-01-20T16:15:37.589Z,4.27
2018-01-20T16:18:08.289Z,4.27
2018-01-20T16:20:39.643Z,4.90
2018-01-20T16:23:11.418Z,4.00
2018-01-20T16:25:43.633Z,3.77
2018-01-20T16:28:17.414Z,4.90
2018-01-20T16:30:48.534Z,4.57
2018-01-20T16:33:19.692Z,5.57
2018-01-20T16:35:52.079Z,4.90
2018-01-20T16:38:25.211Z,5.57
2018-01-20T16:40:57.272Z,4.80
2018-01-20T16:43:27.578Z,5.00
2018-01-20T16:45:58.527Z,4.17
2018-01-20T16:48:30.804Z,4.80
2018-01-20T16:51:01.264Z,4.50
2018-01-20T16:53:32.562Z,4.20
2018-01-20T16:56:06.521Z,5.00
2018-01-20T16:58:39.186Z,4.83
2018-01-20T17:01:10.491Z,4.97
2018-01-20T17:03:40.852Z,4.17
2018-01-20T17:06:11.278Z,3.90
2018-01-20T17:08:43.921Z,4.70
2018-01-20T17:11:14.423Z,4.20
2018-01-20T17:13:44.966Z,5.40
2018-01-20T17:16:15.743Z,3.90
2018-01-20T17:18:46.661Z,4.10
2018-01-20T17:21:16.876Z,3.60
2018-01-20T17:23:47.903Z,4.37
2018-01-20T17:26:21.557Z,4.80
2018-01-20T17:28:52.594Z,4.53
2018-01-20T17:31:23.807Z,4.60
2018-01-20T17:33:54.167Z,4.97
2018-01-20T17:36:25.350Z,4.60
2018-01-20T17:38:56.572Z,5.03
2018-01-20T17:41:28.023Z,4.60
2018-01-20T17:43:59.253Z,4.87
2018-01-20T17:46:32.120Z,4.90
2018-01-20T17:49:02.525Z,5.23
2018-01-20T17:51:34.744Z,4.50
2018-01-20T17:54:06.193Z,5.70
2018-01-20T17:56:37.277Z,4.33
2018-01-20T17:59:07.822Z,5.20
2018-01-20T18:01:39.238Z,5.70
2018-01-20T18:04:10.344Z,5.27
2018-01-20T18:06:41.268Z,5.50
2018-01-20T18:09:14.834Z,4.63
2018-01-20T18:11:46.224Z,5.23
2018-01-20T18:14:18.322Z,5.47
2018-01-20T18:16:52.767Z,5.70
2018-01-20T18:19:22.938Z,6.70
2018-01-20T18:21:54.514Z,7.17
2018-01-20T18:24:25.562Z,7.20
2018-01-20T18:26:56.241Z,4.63
2018-01-20T18:29:27.499Z,6.77
2018-01-20T18:31:58.598Z,6.27
2018-01-20T18:34:30.352Z,6.50
2018-01-20T18:37:02.383Z,5.80
2018-01-20T18:39:34.046Z,6.60
2018-01-20T18:42:04.548Z,7.03
2018-01-20T18:44:35.806Z,6.97
2018-01-20T18:47:06.656Z,6.47
2018-01-20T18:49:38.213Z,6.53
2018-01-20T18:52:10.516Z,7.07
2018-01-20T18:54:41.470Z,6.30
2018-01-20T18:57:12.560Z,6.13
2018-01-20T18:59:43.269Z,6.10
2018-01-20T19:02:13.846Z,7.80
2018-01-20T19:04:45.120Z,6.47
2018-01-20T19:07:21.995Z,6.73
2018-01-20T19:10:00.644Z,6.33
2018-01-20T19:12:33.219Z,6.33
2018-01-20T19:15:05.131Z,6.20
2018-01-20T19:17:37.489Z,5.90
2018-01-20T19:20:12.537Z,6.80
2018-01-20T19:22:43.077Z,5.63
2018-01-20T19:25:15.287Z,5.70
2018-01-20T19:27:47.120Z,5.23
2018-01-20T19:30:17.432Z,7.60
2018-01-20T19:32:49.182Z,6.97
2018-01-20T19:35:20.495Z,7.97
2018-01-20T19:37:52.339Z,6.70
2018-01-20T19:40:23.291Z,6.50
2018-01-20T19:42:54.299Z,6.70
2018-01-20T19:45:25.801Z,7.60
2018-01-20T19:47:56.577Z,6.57
2018-01-20T19:50:26.989Z,7.17
2018-01-20T19:52:57.812Z,5.77
2018-01-20T19:55:29.183Z,7.33
2018-01-20T19:57:59.723Z,9.30
2018-01-20T20:00:32.284Z,7.63
2018-01-20T20:03:02.680Z,6.97
2018-01-20T20:05:34.165Z,8.30
2018-01-20T20:08:05.210Z,7.63
2018-01-20T20:10:35.875Z,7.60
2018-01-20T20:13:06.477Z,8.33
2018-01-20T20:15:37.084Z,8.47
2018-01-20T20:18:07.495Z,7.30
2018-01-20T20:20:37.732Z,8.43
2018-01-20T20:23:10.710Z,7.50
2018-01-20T20:25:42.721Z,7.57
2018-01-20T20:28:13.034Z,7.07
2018-01-20T20:30:43.341Z,6.97
2018-01-20T20:33:13.795Z,6.93
2018-01-20T20:35:43.844Z,6.57
2018-01-20T20:38:14.147Z,6.60
2018-01-20T20:40:44.617Z,6.47
2018-01-20T20:43:15.917Z,6.00
2018-01-20T20:45:46.440Z,6.67
2018-01-20T20:48:17.161Z,7.07
2018-01-20T20:50:47.510Z,6.70
2018-01-20T20:53:17.579Z,6.17
2018-01-20T20:55:48.387Z,5.90
2018-01-20T20:58:18.591Z,7.07
2018-01-20T21:00:48.759Z,7.23
2018-01-20T21:03:21.244Z,7.33
2018-01-20T21:05:52.477Z,6.57
2018-01-20T21:08:22.781Z,6.73
2018-01-20T21:10:54.912Z,8.10
2018-01-20T21:13:25.867Z,7.23
2018-01-20T21:15:56.740Z,7.80
2018-01-20T21:18:27.820Z,7.23
2018-01-20T21:20:58.110Z,7.90
2018-01-20T21:23:28.809Z,6.63
2018-01-20T21:25:59.734Z,7.27
2018-01-20T21:28:31.652Z,7.50
2018-01-20T21:31:04.054Z,7.27
2018-01-20T21:33:34.312Z,7.33
2018-01-20T21:36:05.097Z,7.43
2018-01-20T21:38:35.817Z,7.67
2018-01-20T21:41:06.044Z,8.40
2018-01-20T21:43:36.206Z,7.17
2018-01-20T21:46:06.266Z,6.13
2018-01-20T21:48:38.008Z,7.20
2018-01-20T21:51:08.978Z,7.10
2018-01-20T21:53:46.439Z,7.40
2018-01-20T21:56:18.056Z,7.57
2018-01-20T21:58:48.570Z,7.43
2018-01-20T22:01:18.730Z,7.50
2018-01-20T22:03:49.669Z,6.47
2018-01-20T22:06:21.071Z,7.30
2018-01-20T22:08:51.199Z,7.23
2018-01-20T22:11:21.302Z,7.70
2018-01-20T22:13:51.551Z,6.87
2018-01-20T22:16:22.744Z,7.80
2018-01-20T22:18:52.842Z,6.57
2018-01-20T22:21:23.757Z,7.63
2018-01-20T22:23:54.417Z,6.93
2018-01-20T22:26:24.699Z,6.50
2018-01-20T22:28:54.874Z,7.30
2018-01-20T22:31:24.994Z,8.20
2018-01-20T22:33:55.202Z,8.27
2018-01-20T22:36:25.645Z,8.70
2018-01-20T22:38:57.240Z,8.83
2018-01-20T22:41:27.401Z,8.87
2018-01-20T22:43:57.500Z,9.20
2018-01-20T22:46:28.293Z,9.03
2018-01-20T22:48:58.590Z,9.10
2018-01-20T22:51:28.836Z,8.77
2018-01-20T22:53:59.327Z,10.53
2018-01-20T22:56:29.356Z,10.07
2018-01-20T22:58:59.430Z,9.80
2018-01-20T23:01:29.458Z,9.83
2018-01-20T23:03:59.571Z,9.43
2018-01-20T23:06:29.929Z,9.47
2018-01-20T23:09:00.054Z,10.13
2018-01-20T23:11:30.121Z,10.10
2018-01-20T23:14:00.172Z,9.70
2018-01-20T23:16:30.998Z,10.50
2018-01-20T23:19:01.339Z,8.97
2018-01-20T23:28:18.608Z,8.87
2018-01-20T23:30:48.888Z,8.83
2018-01-20T23:33:18.983Z,9.40
2018-01-20T23:35:49.332Z,10.20
2018-01-20T23:38:19.408Z,9.87
2018-01-20T23:40:49.756Z,10.10
2018-01-20T23:43:19.982Z,10.07
2018-01-20T23:45:50.254Z,10.67
2018-01-20T23:48:20.404Z,8.87
2018-01-20T23:50:51.452Z,9.80
2018-01-20T23:53:21.801Z,9.27
2018-01-20T23:55:52.656Z,11.00
2018-01-20T23:58:23.732Z,10.47
